sensor_id;sensor_type;location;lat;lon;timestamp;P1;durP1;ratioP1;P2;durP2;ratioP2
65691;SDS011;52411;52.716;6.696;2022-12-29T00:02:09;7.97;;;6.53;;
65691;SDS011;52411;52.716;6.696;2022-12-29T00:04:35;8.18;;;6.35;;
65691;SDS011;52411;52.716;6.696;2022-12-29T00:07:01;6.50;;;5.65;;
65691;SDS011;52411;52.716;6.696;2022-12-29T00:09:29;8.70;;;5.95;;
65691;SDS011;52411;52.716;6.696;2022-12-29T00:11:55;7.28;;;5.97;;
65691;SDS011;52411;52.716;6.696;2022-12-29T00:14:22;7.80;;;5.90;;
65691;SDS011;52411;52.716;6.696;2022-12-29T00:17:06;7.00;;;6.07;;
65691;SDS011;52411;52.716;6.696;2022-12-29T00:19:32;8.73;;;6.47;;
65691;SDS011;52411;52.716;6.696;2022-12-29T00:22:16;7.50;;;5.75;;
65691;SDS011;52411;52.716;6.696;2022-12-29T00:25:01;6.40;;;5.53;;
65691;SDS011;52411;52.716;6.696;2022-12-29T00:27:45;8.45;;;6.82;;
65691;SDS011;52411;52.716;6.696;2022-12-29T00:30:29;8.00;;;6.03;;
65691;SDS011;52411;52.716;6.696;2022-12-29T00:33:18;8.88;;;6.68;;
65691;SDS011;52411;52.716;6.696;2022-12-29T00:36:04;8.18;;;6.75;;
65691;SDS011;52411;52.716;6.696;2022-12-29T00:41:21;7.47;;;6.22;;
65691;SDS011;52411;52.716;6.696;2022-12-29T00:44:05;7.40;;;4.88;;
65691;SDS011;52411;52.716;6.696;2022-12-29T00:49:08;6.93;;;4.97;;
65691;SDS011;52411;52.716;6.696;2022-12-29T00:51:53;6.55;;;4.82;;
65691;SDS011;52411;52.716;6.696;2022-12-29T00:54:20;6.80;;;5.35;;
65691;SDS011;52411;52.716;6.696;2022-12-29T00:56:49;7.07;;;5.18;;
65691;SDS011;52411;52.716;6.696;2022-12-29T00:59:15;7.78;;;5.22;;
65691;SDS011;52411;52.716;6.696;2022-12-29T01:01:42;6.03;;;5.10;;
65691;SDS011;52411;52.716;6.696;2022-12-29T01:04:08;5.80;;;4.63;;
65691;SDS011;52411;52.716;6.696;2022-12-29T01:06:35;6.60;;;4.95;;
65691;SDS011;52411;52.716;6.696;2022-12-29T01:09:03;6.20;;;5.00;;
65691;SDS011;52411;52.716;6.696;2022-12-29T01:11:47;6.18;;;4.93;;
65691;SDS011;52411;52.716;6.696;2022-12-29T01:14:13;7.13;;;4.78;;
65691;SDS011;52411;52.716;6.696;2022-12-29T01:16:39;5.70;;;4.78;;
65691;SDS011;52411;52.716;6.696;2022-12-29T01:19:05;6.43;;;4.50;;
65691;SDS011;52411;52.716;6.696;2022-12-29T01:21:30;6.47;;;4.53;;
65691;SDS011;52411;52.716;6.696;2022-12-29T01:23:57;6.47;;;4.93;;
65691;SDS011;52411;52.716;6.696;2022-12-29T01:26:22;6.38;;;4.60;;
65691;SDS011;52411;52.716;6.696;2022-12-29T01:28:48;6.72;;;4.40;;
65691;SDS011;52411;52.716;6.696;2022-12-29T01:31:14;9.52;;;4.15;;
65691;SDS011;52411;52.716;6.696;2022-12-29T01:33:40;5.75;;;4.22;;
65691;SDS011;52411;52.716;6.696;2022-12-29T01:36:08;6.13;;;4.18;;
65691;SDS011;52411;52.716;6.696;2022-12-29T01:38:35;5.95;;;4.03;;
65691;SDS011;52411;52.716;6.696;2022-12-29T01:41:02;5.22;;;4.43;;
65691;SDS011;52411;52.716;6.696;2022-12-29T01:43:38;6.88;;;4.85;;
65691;SDS011;52411;52.716;6.696;2022-12-29T01:46:04;5.13;;;3.70;;
65691;SDS011;52411;52.716;6.696;2022-12-29T01:48:41;6.97;;;4.15;;
65691;SDS011;52411;52.716;6.696;2022-12-29T01:51:07;5.30;;;4.05;;
65691;SDS011;52411;52.716;6.696;2022-12-29T01:53:33;5.28;;;4.13;;
65691;SDS011;52411;52.716;6.696;2022-12-29T01:56:02;5.18;;;4.10;;
65691;SDS011;52411;52.716;6.696;2022-12-29T01:58:32;5.65;;;4.05;;
65691;SDS011;52411;52.716;6.696;2022-12-29T02:01:03;4.47;;;3.42;;
65691;SDS011;52411;52.716;6.696;2022-12-29T02:03:29;4.40;;;3.30;;
65691;SDS011;52411;52.716;6.696;2022-12-29T02:06:05;5.43;;;3.83;;
65691;SDS011;52411;52.716;6.696;2022-12-29T02:08:37;7.25;;;4.05;;
65691;SDS011;52411;52.716;6.696;2022-12-29T02:11:05;5.57;;;4.00;;
65691;SDS011;52411;52.716;6.696;2022-12-29T02:13:32;5.70;;;3.67;;
65691;SDS011;52411;52.716;6.696;2022-12-29T02:32:30;5.28;;;4.00;;
65691;SDS011;52411;52.716;6.696;2022-12-29T02:38:07;5.68;;;3.42;;
65691;SDS011;52411;52.716;6.696;2022-12-29T02:40:52;4.18;;;3.55;;
65691;SDS011;52411;52.716;6.696;2022-12-29T02:43:33;7.75;;;3.75;;
65691;SDS011;52411;52.716;6.696;2022-12-29T02:46:26;5.55;;;4.18;;
65691;SDS011;52411;52.716;6.696;2022-12-29T02:49:04;5.82;;;4.25;;
65691;SDS011;52411;52.716;6.696;2022-12-29T02:54:31;4.70;;;3.53;;
65691;SDS011;52411;52.716;6.696;2022-12-29T02:59:51;5.03;;;4.10;;
65691;SDS011;52411;52.716;6.696;2022-12-29T03:02:30;6.15;;;4.13;;
65691;SDS011;52411;52.716;6.696;2022-12-29T03:05:50;6.57;;;4.20;;
65691;SDS011;52411;52.716;6.696;2022-12-29T03:08:13;7.35;;;4.43;;
65691;SDS011;52411;52.716;6.696;2022-12-29T03:13:44;4.32;;;3.65;;
65691;SDS011;52411;52.716;6.696;2022-12-29T03:16:44;5.60;;;3.92;;
65691;SDS011;52411;52.716;6.696;2022-12-29T03:19:20;5.22;;;3.30;;
65691;SDS011;52411;52.716;6.696;2022-12-29T03:21:54;5.90;;;3.65;;
65691;SDS011;52411;52.716;6.696;2022-12-29T03:27:38;4.28;;;3.13;;
65691;SDS011;52411;52.716;6.696;2022-12-29T03:30:07;4.03;;;3.03;;
65691;SDS011;52411;52.716;6.696;2022-12-29T03:32:47;5.40;;;2.85;;
65691;SDS011;52411;52.716;6.696;2022-12-29T03:40:42;4.65;;;2.63;;
65691;SDS011;52411;52.716;6.696;2022-12-29T03:43:10;3.33;;;2.30;;
65691;SDS011;52411;52.716;6.696;2022-12-29T03:45:38;3.65;;;2.33;;
65691;SDS011;52411;52.716;6.696;2022-12-29T03:48:03;3.72;;;2.17;;
65691;SDS011;52411;52.716;6.696;2022-12-29T03:50:29;4.32;;;2.08;;
65691;SDS011;52411;52.716;6.696;2022-12-29T03:52:55;3.75;;;1.98;;
65691;SDS011;52411;52.716;6.696;2022-12-29T03:55:21;3.03;;;2.28;;
65691;SDS011;52411;52.716;6.696;2022-12-29T03:57:46;4.50;;;2.13;;
65691;SDS011;52411;52.716;6.696;2022-12-29T04:00:12;2.80;;;1.95;;
65691;SDS011;52411;52.716;6.696;2022-12-29T04:02:38;4.57;;;2.17;;
65691;SDS011;52411;52.716;6.696;2022-12-29T04:05:04;2.97;;;1.80;;
65691;SDS011;52411;52.716;6.696;2022-12-29T04:07:30;4.70;;;1.88;;
65691;SDS011;52411;52.716;6.696;2022-12-29T04:09:55;4.03;;;1.92;;
65691;SDS011;52411;52.716;6.696;2022-12-29T04:12:21;4.18;;;1.77;;
65691;SDS011;52411;52.716;6.696;2022-12-29T04:14:46;5.47;;;1.83;;
65691;SDS011;52411;52.716;6.696;2022-12-29T04:17:12;4.20;;;1.90;;
65691;SDS011;52411;52.716;6.696;2022-12-29T04:19:38;3.78;;;1.95;;
65691;SDS011;52411;52.716;6.696;2022-12-29T04:22:03;4.57;;;1.67;;
65691;SDS011;52411;52.716;6.696;2022-12-29T04:24:29;4.30;;;1.70;;
65691;SDS011;52411;52.716;6.696;2022-12-29T04:26:54;3.22;;;1.77;;
65691;SDS011;52411;52.716;6.696;2022-12-29T04:29:20;3.38;;;1.55;;
65691;SDS011;52411;52.716;6.696;2022-12-29T04:31:46;2.97;;;1.67;;
65691;SDS011;52411;52.716;6.696;2022-12-29T04:34:11;3.35;;;1.70;;
65691;SDS011;52411;52.716;6.696;2022-12-29T04:36:37;3.28;;;2.05;;
65691;SDS011;52411;52.716;6.696;2022-12-29T04:39:04;3.63;;;1.67;;
65691;SDS011;52411;52.716;6.696;2022-12-29T04:41:30;4.63;;;1.83;;
65691;SDS011;52411;52.716;6.696;2022-12-29T04:43:56;4.43;;;1.90;;
65691;SDS011;52411;52.716;6.696;2022-12-29T04:46:22;2.17;;;1.88;;
65691;SDS011;52411;52.716;6.696;2022-12-29T04:48:48;2.90;;;1.77;;
65691;SDS011;52411;52.716;6.696;2022-12-29T04:51:13;3.83;;;1.63;;
65691;SDS011;52411;52.716;6.696;2022-12-29T04:53:39;5.22;;;2.17;;
65691;SDS011;52411;52.716;6.696;2022-12-29T04:56:05;4.03;;;2.13;;
65691;SDS011;52411;52.716;6.696;2022-12-29T04:58:31;3.72;;;1.80;;
65691;SDS011;52411;52.716;6.696;2022-12-29T05:00:57;4.63;;;2.00;;
65691;SDS011;52411;52.716;6.696;2022-12-29T05:03:22;3.65;;;2.08;;
65691;SDS011;52411;52.716;6.696;2022-12-29T05:05:48;2.75;;;2.00;;
65691;SDS011;52411;52.716;6.696;2022-12-29T05:08:13;3.63;;;2.30;;
65691;SDS011;52411;52.716;6.696;2022-12-29T05:10:39;4.15;;;2.30;;
65691;SDS011;52411;52.716;6.696;2022-12-29T05:13:05;5.00;;;2.20;;
65691;SDS011;52411;52.716;6.696;2022-12-29T05:15:30;4.20;;;2.33;;
65691;SDS011;52411;52.716;6.696;2022-12-29T05:17:56;4.72;;;2.20;;
65691;SDS011;52411;52.716;6.696;2022-12-29T05:20:21;5.18;;;2.10;;
65691;SDS011;52411;52.716;6.696;2022-12-29T05:22:47;7.45;;;2.20;;
65691;SDS011;52411;52.716;6.696;2022-12-29T05:25:12;4.78;;;2.35;;
65691;SDS011;52411;52.716;6.696;2022-12-29T05:27:38;8.93;;;2.40;;
65691;SDS011;52411;52.716;6.696;2022-12-29T05:30:04;3.63;;;2.10;;
65691;SDS011;52411;52.716;6.696;2022-12-29T05:32:30;5.03;;;2.55;;
65691;SDS011;52411;52.716;6.696;2022-12-29T05:34:55;5.28;;;2.17;;
65691;SDS011;52411;52.716;6.696;2022-12-29T05:37:21;3.20;;;2.10;;
65691;SDS011;52411;52.716;6.696;2022-12-29T05:39:46;5.25;;;2.25;;
65691;SDS011;52411;52.716;6.696;2022-12-29T05:42:12;5.55;;;1.88;;
65691;SDS011;52411;52.716;6.696;2022-12-29T05:44:37;6.32;;;2.50;;
65691;SDS011;52411;52.716;6.696;2022-12-29T05:47:04;3.85;;;2.10;;
65691;SDS011;52411;52.716;6.696;2022-12-29T05:49:30;4.05;;;1.90;;
65691;SDS011;52411;52.716;6.696;2022-12-29T05:51:55;4.65;;;2.13;;
65691;SDS011;52411;52.716;6.696;2022-12-29T05:54:21;4.00;;;2.22;;
65691;SDS011;52411;52.716;6.696;2022-12-29T05:56:47;4.38;;;2.00;;
65691;SDS011;52411;52.716;6.696;2022-12-29T05:59:12;8.57;;;2.08;;
65691;SDS011;52411;52.716;6.696;2022-12-29T06:01:38;6.13;;;1.95;;
65691;SDS011;52411;52.716;6.696;2022-12-29T06:04:03;4.45;;;1.80;;
65691;SDS011;52411;52.716;6.696;2022-12-29T06:06:29;4.68;;;1.92;;
65691;SDS011;52411;52.716;6.696;2022-12-29T06:08:55;5.95;;;1.92;;
65691;SDS011;52411;52.716;6.696;2022-12-29T06:11:20;5.38;;;1.88;;
65691;SDS011;52411;52.716;6.696;2022-12-29T06:13:46;5.10;;;1.45;;
65691;SDS011;52411;52.716;6.696;2022-12-29T06:16:11;5.10;;;1.77;;
65691;SDS011;52411;52.716;6.696;2022-12-29T06:18:37;6.57;;;2.10;;
65691;SDS011;52411;52.716;6.696;2022-12-29T06:21:03;4.45;;;1.60;;
65691;SDS011;52411;52.716;6.696;2022-12-29T06:23:29;4.70;;;1.40;;
65691;SDS011;52411;52.716;6.696;2022-12-29T06:25:55;4.90;;;1.45;;
65691;SDS011;52411;52.716;6.696;2022-12-29T06:28:21;4.32;;;1.65;;
65691;SDS011;52411;52.716;6.696;2022-12-29T06:30:46;4.78;;;1.58;;
65691;SDS011;52411;52.716;6.696;2022-12-29T06:33:13;6.43;;;1.65;;
65691;SDS011;52411;52.716;6.696;2022-12-29T06:35:39;8.43;;;1.83;;
65691;SDS011;52411;52.716;6.696;2022-12-29T06:38:06;8.73;;;1.83;;
65691;SDS011;52411;52.716;6.696;2022-12-29T06:40:32;3.45;;;1.50;;
65691;SDS011;52411;52.716;6.696;2022-12-29T06:42:58;3.42;;;1.65;;
65691;SDS011;52411;52.716;6.696;2022-12-29T06:45:23;10.20;;;1.85;;
65691;SDS011;52411;52.716;6.696;2022-12-29T06:47:49;5.78;;;1.77;;
65691;SDS011;52411;52.716;6.696;2022-12-29T06:50:15;8.65;;;1.80;;
65691;SDS011;52411;52.716;6.696;2022-12-29T06:52:40;9.13;;;1.70;;
65691;SDS011;52411;52.716;6.696;2022-12-29T06:55:06;7.50;;;1.77;;
65691;SDS011;52411;52.716;6.696;2022-12-29T06:57:32;9.40;;;1.70;;
65691;SDS011;52411;52.716;6.696;2022-12-29T06:59:57;8.00;;;2.30;;
65691;SDS011;52411;52.716;6.696;2022-12-29T07:02:23;11.63;;;2.25;;
65691;SDS011;52411;52.716;6.696;2022-12-29T07:04:50;8.25;;;2.10;;
65691;SDS011;52411;52.716;6.696;2022-12-29T07:07:17;9.32;;;1.67;;
65691;SDS011;52411;52.716;6.696;2022-12-29T07:09:44;7.70;;;1.55;;
65691;SDS011;52411;52.716;6.696;2022-12-29T07:12:10;11.07;;;1.65;;
65691;SDS011;52411;52.716;6.696;2022-12-29T07:14:36;9.90;;;1.80;;
65691;SDS011;52411;52.716;6.696;2022-12-29T07:17:02;8.15;;;2.00;;
65691;SDS011;52411;52.716;6.696;2022-12-29T07:19:30;9.15;;;2.53;;
65691;SDS011;52411;52.716;6.696;2022-12-29T07:21:56;9.93;;;2.20;;
65691;SDS011;52411;52.716;6.696;2022-12-29T07:24:21;8.80;;;1.70;;
65691;SDS011;52411;52.716;6.696;2022-12-29T07:26:47;9.45;;;2.00;;
65691;SDS011;52411;52.716;6.696;2022-12-29T07:29:13;8.80;;;1.98;;
65691;SDS011;52411;52.716;6.696;2022-12-29T07:31:38;7.05;;;1.77;;
65691;SDS011;52411;52.716;6.696;2022-12-29T07:34:04;9.75;;;1.90;;
65691;SDS011;52411;52.716;6.696;2022-12-29T07:36:30;6.75;;;1.85;;
65691;SDS011;52411;52.716;6.696;2022-12-29T07:38:55;12.07;;;1.90;;
65691;SDS011;52411;52.716;6.696;2022-12-29T07:41:21;7.30;;;2.28;;
65691;SDS011;52411;52.716;6.696;2022-12-29T07:43:47;9.98;;;2.03;;
65691;SDS011;52411;52.716;6.696;2022-12-29T07:46:13;7.88;;;1.85;;
65691;SDS011;52411;52.716;6.696;2022-12-29T07:48:39;7.78;;;1.90;;
65691;SDS011;52411;52.716;6.696;2022-12-29T07:51:05;7.20;;;2.08;;
65691;SDS011;52411;52.716;6.696;2022-12-29T07:53:31;7.93;;;1.92;;
65691;SDS011;52411;52.716;6.696;2022-12-29T07:55:57;9.25;;;2.17;;
65691;SDS011;52411;52.716;6.696;2022-12-29T07:58:22;7.03;;;2.00;;
65691;SDS011;52411;52.716;6.696;2022-12-29T08:00:52;6.40;;;1.88;;
65691;SDS011;52411;52.716;6.696;2022-12-29T08:03:18;9.50;;;2.10;;
65691;SDS011;52411;52.716;6.696;2022-12-29T08:05:44;12.93;;;2.22;;
65691;SDS011;52411;52.716;6.696;2022-12-29T08:08:10;9.13;;;2.30;;
65691;SDS011;52411;52.716;6.696;2022-12-29T08:10:35;8.48;;;2.17;;
65691;SDS011;52411;52.716;6.696;2022-12-29T08:13:01;6.90;;;2.20;;
65691;SDS011;52411;52.716;6.696;2022-12-29T08:15:26;7.88;;;2.10;;
65691;SDS011;52411;52.716;6.696;2022-12-29T08:17:52;8.43;;;2.30;;
65691;SDS011;52411;52.716;6.696;2022-12-29T08:20:17;5.93;;;1.80;;
65691;SDS011;52411;52.716;6.696;2022-12-29T08:22:43;8.57;;;2.60;;
65691;SDS011;52411;52.716;6.696;2022-12-29T08:25:09;9.35;;;2.13;;
65691;SDS011;52411;52.716;6.696;2022-12-29T08:27:34;6.40;;;2.20;;
65691;SDS011;52411;52.716;6.696;2022-12-29T08:30:00;6.63;;;2.00;;
65691;SDS011;52411;52.716;6.696;2022-12-29T08:32:26;11.07;;;2.17;;
65691;SDS011;52411;52.716;6.696;2022-12-29T08:34:53;6.88;;;1.73;;
65691;SDS011;52411;52.716;6.696;2022-12-29T08:37:19;7.28;;;1.80;;
65691;SDS011;52411;52.716;6.696;2022-12-29T08:39:45;9.88;;;2.13;;
65691;SDS011;52411;52.716;6.696;2022-12-29T08:42:10;8.77;;;2.10;;
65691;SDS011;52411;52.716;6.696;2022-12-29T08:44:36;7.30;;;2.17;;
65691;SDS011;52411;52.716;6.696;2022-12-29T08:47:02;7.10;;;2.00;;
65691;SDS011;52411;52.716;6.696;2022-12-29T08:49:27;5.63;;;2.20;;
65691;SDS011;52411;52.716;6.696;2022-12-29T08:51:53;9.82;;;2.50;;
65691;SDS011;52411;52.716;6.696;2022-12-29T08:54:18;7.25;;;1.55;;
65691;SDS011;52411;52.716;6.696;2022-12-29T08:56:44;7.55;;;1.90;;
65691;SDS011;52411;52.716;6.696;2022-12-29T08:59:09;10.07;;;2.42;;
65691;SDS011;52411;52.716;6.696;2022-12-29T09:01:35;7.38;;;1.83;;
65691;SDS011;52411;52.716;6.696;2022-12-29T09:04:01;8.18;;;2.17;;
65691;SDS011;52411;52.716;6.696;2022-12-29T09:06:27;5.50;;;2.08;;
65691;SDS011;52411;52.716;6.696;2022-12-29T09:08:56;7.10;;;2.00;;
65691;SDS011;52411;52.716;6.696;2022-12-29T09:11:22;9.55;;;1.90;;
65691;SDS011;52411;52.716;6.696;2022-12-29T09:13:49;4.65;;;1.83;;
65691;SDS011;52411;52.716;6.696;2022-12-29T09:16:16;5.45;;;1.98;;
65691;SDS011;52411;52.716;6.696;2022-12-29T09:18:43;10.15;;;2.33;;
65691;SDS011;52411;52.716;6.696;2022-12-29T09:21:10;11.23;;;2.05;;
65691;SDS011;52411;52.716;6.696;2022-12-29T09:23:36;10.73;;;2.40;;
65691;SDS011;52411;52.716;6.696;2022-12-29T09:26:03;8.95;;;2.63;;
65691;SDS011;52411;52.716;6.696;2022-12-29T09:28:29;9.27;;;2.25;;
65691;SDS011;52411;52.716;6.696;2022-12-29T09:30:55;7.25;;;2.03;;
65691;SDS011;52411;52.716;6.696;2022-12-29T09:33:21;8.05;;;2.20;;
65691;SDS011;52411;52.716;6.696;2022-12-29T09:35:51;9.10;;;2.40;;
65691;SDS011;52411;52.716;6.696;2022-12-29T09:38:22;8.23;;;2.67;;
65691;SDS011;52411;52.716;6.696;2022-12-29T09:40:50;7.05;;;2.22;;
65691;SDS011;52411;52.716;6.696;2022-12-29T09:43:34;9.15;;;2.33;;
65691;SDS011;52411;52.716;6.696;2022-12-29T09:46:28;7.03;;;2.17;;
65691;SDS011;52411;52.716;6.696;2022-12-29T09:49:20;7.65;;;2.63;;
65691;SDS011;52411;52.716;6.696;2022-12-29T09:51:53;6.78;;;2.45;;
65691;SDS011;52411;52.716;6.696;2022-12-29T09:54:29;10.18;;;2.20;;
65691;SDS011;52411;52.716;6.696;2022-12-29T09:57:02;7.82;;;2.30;;
65691;SDS011;52411;52.716;6.696;2022-12-29T09:59:35;5.97;;;1.90;;
65691;SDS011;52411;52.716;6.696;2022-12-29T10:08:00;11.93;;;2.60;;
65691;SDS011;52411;52.716;6.696;2022-12-29T10:10:38;5.90;;;1.80;;
65691;SDS011;52411;52.716;6.696;2022-12-29T10:23:35;8.60;;;1.80;;
65691;SDS011;52411;52.716;6.696;2022-12-29T10:26:41;8.57;;;2.28;;
65691;SDS011;52411;52.716;6.696;2022-12-29T10:29:06;6.28;;;1.80;;
65691;SDS011;52411;52.716;6.696;2022-12-29T10:31:49;11.18;;;2.33;;
65691;SDS011;52411;52.716;6.696;2022-12-29T10:34:27;9.55;;;2.38;;
65691;SDS011;52411;52.716;6.696;2022-12-29T10:37:03;7.93;;;2.00;;
65691;SDS011;52411;52.716;6.696;2022-12-29T10:39:37;11.23;;;2.97;;
65691;SDS011;52411;52.716;6.696;2022-12-29T10:44:50;6.78;;;2.25;;
65691;SDS011;52411;52.716;6.696;2022-12-29T10:47:18;6.30;;;2.00;;
65691;SDS011;52411;52.716;6.696;2022-12-29T10:49:48;4.95;;;1.80;;
65691;SDS011;52411;52.716;6.696;2022-12-29T10:52:15;8.10;;;2.10;;
65691;SDS011;52411;52.716;6.696;2022-12-29T10:54:49;6.57;;;2.00;;
65691;SDS011;52411;52.716;6.696;2022-12-29T10:57:33;7.45;;;2.20;;
65691;SDS011;52411;52.716;6.696;2022-12-29T11:00:08;11.20;;;2.55;;
65691;SDS011;52411;52.716;6.696;2022-12-29T11:05:10;7.68;;;2.10;;
65691;SDS011;52411;52.716;6.696;2022-12-29T11:07:38;10.20;;;2.35;;
65691;SDS011;52411;52.716;6.696;2022-12-29T11:10:56;6.53;;;2.10;;
65691;SDS011;52411;52.716;6.696;2022-12-29T11:13:18;12.18;;;2.35;;
65691;SDS011;52411;52.716;6.696;2022-12-29T11:15:50;8.52;;;2.22;;
65691;SDS011;52411;52.716;6.696;2022-12-29T11:18:20;7.55;;;2.50;;
65691;SDS011;52411;52.716;6.696;2022-12-29T11:20:46;9.95;;;2.58;;
65691;SDS011;52411;52.716;6.696;2022-12-29T11:23:30;6.18;;;2.22;;
65691;SDS011;52411;52.716;6.696;2022-12-29T11:26:08;7.60;;;2.50;;
65691;SDS011;52411;52.716;6.696;2022-12-29T11:31:45;12.07;;;2.50;;
65691;SDS011;52411;52.716;6.696;2022-12-29T11:34:20;8.35;;;2.33;;
65691;SDS011;52411;52.716;6.696;2022-12-29T11:37:03;10.23;;;2.40;;
65691;SDS011;52411;52.716;6.696;2022-12-29T11:42:12;5.75;;;2.22;;
65691;SDS011;52411;52.716;6.696;2022-12-29T11:44:47;6.93;;;2.20;;
65691;SDS011;52411;52.716;6.696;2022-12-29T11:47:25;7.60;;;2.20;;
65691;SDS011;52411;52.716;6.696;2022-12-29T11:49:56;12.60;;;3.38;;
65691;SDS011;52411;52.716;6.696;2022-12-29T11:52:25;8.88;;;2.30;;
65691;SDS011;52411;52.716;6.696;2022-12-29T11:54:54;6.40;;;2.00;;
65691;SDS011;52411;52.716;6.696;2022-12-29T11:57:21;7.40;;;2.30;;
65691;SDS011;52411;52.716;6.696;2022-12-29T12:04:49;7.97;;;2.50;;
65691;SDS011;52411;52.716;6.696;2022-12-29T12:07:20;8.43;;;2.38;;
65691;SDS011;52411;52.716;6.696;2022-12-29T12:09:57;5.65;;;2.20;;
65691;SDS011;52411;52.716;6.696;2022-12-29T12:12:37;9.13;;;2.40;;
65691;SDS011;52411;52.716;6.696;2022-12-29T12:15:18;11.43;;;2.53;;
65691;SDS011;52411;52.716;6.696;2022-12-29T12:18:30;11.48;;;2.50;;
65691;SDS011;52411;52.716;6.696;2022-12-29T12:23:18;10.40;;;2.75;;
65691;SDS011;52411;52.716;6.696;2022-12-29T12:26:09;11.18;;;2.75;;
65691;SDS011;52411;52.716;6.696;2022-12-29T12:34:59;10.77;;;3.75;;
65691;SDS011;52411;52.716;6.696;2022-12-29T12:53:58;11.30;;;2.80;;
65691;SDS011;52411;52.716;6.696;2022-12-29T12:56:47;10.40;;;2.70;;
65691;SDS011;52411;52.716;6.696;2022-12-29T12:59:40;14.02;;;2.95;;
65691;SDS011;52411;52.716;6.696;2022-12-29T13:05:02;11.17;;;2.70;;
65691;SDS011;52411;52.716;6.696;2022-12-29T13:16:08;10.95;;;2.70;;
65691;SDS011;52411;52.716;6.696;2022-12-29T13:19:01;9.68;;;2.25;;
65691;SDS011;52411;52.716;6.696;2022-12-29T13:21:44;13.07;;;2.60;;
65691;SDS011;52411;52.716;6.696;2022-12-29T13:24:27;9.65;;;2.42;;
65691;SDS011;52411;52.716;6.696;2022-12-29T13:34:54;17.73;;;3.08;;
65691;SDS011;52411;52.716;6.696;2022-12-29T13:37:29;12.52;;;2.85;;
65691;SDS011;52411;52.716;6.696;2022-12-29T13:39:59;11.15;;;2.70;;
65691;SDS011;52411;52.716;6.696;2022-12-29T13:42:28;12.60;;;2.80;;
65691;SDS011;52411;52.716;6.696;2022-12-29T13:44:59;11.57;;;2.92;;
65691;SDS011;52411;52.716;6.696;2022-12-29T13:50:02;9.23;;;3.10;;
65691;SDS011;52411;52.716;6.696;2022-12-29T13:52:39;15.73;;;3.30;;
65691;SDS011;52411;52.716;6.696;2022-12-29T13:55:49;11.98;;;2.95;;
65691;SDS011;52411;52.716;6.696;2022-12-29T13:58:12;17.70;;;3.42;;
65691;SDS011;52411;52.716;6.696;2022-12-29T14:08:52;8.85;;;2.58;;
65691;SDS011;52411;52.716;6.696;2022-12-29T14:11:21;16.92;;;3.35;;
65691;SDS011;52411;52.716;6.696;2022-12-29T14:13:53;15.60;;;3.08;;
65691;SDS011;52411;52.716;6.696;2022-12-29T14:16:26;16.23;;;2.95;;
65691;SDS011;52411;52.716;6.696;2022-12-29T14:18:57;16.35;;;3.47;;
65691;SDS011;52411;52.716;6.696;2022-12-29T14:21:30;14.52;;;3.10;;
65691;SDS011;52411;52.716;6.696;2022-12-29T14:26:58;15.35;;;3.20;;
65691;SDS011;52411;52.716;6.696;2022-12-29T14:31:49;10.20;;;2.70;;
65691;SDS011;52411;52.716;6.696;2022-12-29T14:34:25;7.75;;;2.20;;
65691;SDS011;52411;52.716;6.696;2022-12-29T14:36:54;8.63;;;2.05;;
65691;SDS011;52411;52.716;6.696;2022-12-29T14:49:55;11.52;;;2.72;;
65691;SDS011;52411;52.716;6.696;2022-12-29T14:57:26;11.68;;;2.50;;
65691;SDS011;52411;52.716;6.696;2022-12-29T14:59:57;11.55;;;2.50;;
65691;SDS011;52411;52.716;6.696;2022-12-29T15:02:27;10.82;;;2.53;;
65691;SDS011;52411;52.716;6.696;2022-12-29T15:04:59;14.80;;;2.67;;
65691;SDS011;52411;52.716;6.696;2022-12-29T15:07:26;13.13;;;2.78;;
65691;SDS011;52411;52.716;6.696;2022-12-29T15:09:55;9.57;;;2.50;;
65691;SDS011;52411;52.716;6.696;2022-12-29T15:14:59;13.10;;;3.28;;
65691;SDS011;52411;52.716;6.696;2022-12-29T15:17:26;12.00;;;3.45;;
65691;SDS011;52411;52.716;6.696;2022-12-29T15:19:54;13.70;;;3.58;;
65691;SDS011;52411;52.716;6.696;2022-12-29T15:22:22;18.23;;;3.95;;
65691;SDS011;52411;52.716;6.696;2022-12-29T15:24:49;16.38;;;3.67;;
65691;SDS011;52411;52.716;6.696;2022-12-29T15:29:46;10.90;;;3.30;;
65691;SDS011;52411;52.716;6.696;2022-12-29T15:34:41;14.70;;;3.63;;
65691;SDS011;52411;52.716;6.696;2022-12-29T15:37:07;8.48;;;3.42;;
65691;SDS011;52411;52.716;6.696;2022-12-29T15:39:34;13.60;;;3.70;;
65691;SDS011;52411;52.716;6.696;2022-12-29T15:42:06;10.02;;;3.25;;
65691;SDS011;52411;52.716;6.696;2022-12-29T15:44:39;14.60;;;3.58;;
65691;SDS011;52411;52.716;6.696;2022-12-29T15:47:10;11.70;;;3.88;;
65691;SDS011;52411;52.716;6.696;2022-12-29T15:49:50;14.15;;;3.70;;
65691;SDS011;52411;52.716;6.696;2022-12-29T15:52:30;13.30;;;3.20;;
65691;SDS011;52411;52.716;6.696;2022-12-29T15:54:58;13.57;;;3.38;;
65691;SDS011;52411;52.716;6.696;2022-12-29T15:57:26;10.70;;;3.40;;
65691;SDS011;52411;52.716;6.696;2022-12-29T15:59:55;13.48;;;4.18;;
65691;SDS011;52411;52.716;6.696;2022-12-29T16:02:21;11.15;;;3.50;;
65691;SDS011;52411;52.716;6.696;2022-12-29T16:04:49;8.93;;;3.30;;
65691;SDS011;52411;52.716;6.696;2022-12-29T16:07:26;11.60;;;3.38;;
65691;SDS011;52411;52.716;6.696;2022-12-29T16:09:55;13.43;;;3.47;;
65691;SDS011;52411;52.716;6.696;2022-12-29T16:12:29;10.88;;;3.58;;
65691;SDS011;52411;52.716;6.696;2022-12-29T16:15:01;14.02;;;3.47;;
65691;SDS011;52411;52.716;6.696;2022-12-29T16:17:41;8.68;;;3.40;;
65691;SDS011;52411;52.716;6.696;2022-12-29T16:20:25;10.88;;;4.00;;
65691;SDS011;52411;52.716;6.696;2022-12-29T16:23:04;12.82;;;4.18;;
65691;SDS011;52411;52.716;6.696;2022-12-29T16:25:34;11.02;;;3.65;;
65691;SDS011;52411;52.716;6.696;2022-12-29T16:30:38;11.52;;;4.10;;
65691;SDS011;52411;52.716;6.696;2022-12-29T16:33:04;14.15;;;3.72;;
65691;SDS011;52411;52.716;6.696;2022-12-29T16:38:18;6.70;;;3.28;;
65691;SDS011;52411;52.716;6.696;2022-12-29T16:43:28;6.82;;;3.17;;
65691;SDS011;52411;52.716;6.696;2022-12-29T16:48:35;7.90;;;2.45;;
65691;SDS011;52411;52.716;6.696;2022-12-29T16:51:13;7.85;;;2.17;;
65691;SDS011;52411;52.716;6.696;2022-12-29T16:54:00;7.65;;;2.20;;
65691;SDS011;52411;52.716;6.696;2022-12-29T16:56:27;5.70;;;2.08;;
65691;SDS011;52411;52.716;6.696;2022-12-29T16:59:25;7.93;;;2.60;;
65691;SDS011;52411;52.716;6.696;2022-12-29T17:01:56;6.25;;;2.72;;
65691;SDS011;52411;52.716;6.696;2022-12-29T17:04:24;6.70;;;2.88;;
65691;SDS011;52411;52.716;6.696;2022-12-29T17:06:49;5.55;;;3.25;;
65691;SDS011;52411;52.716;6.696;2022-12-29T17:09:25;5.82;;;2.75;;
65691;SDS011;52411;52.716;6.696;2022-12-29T17:11:56;9.70;;;3.22;;
65691;SDS011;52411;52.716;6.696;2022-12-29T17:19:51;9.50;;;3.78;;
65691;SDS011;52411;52.716;6.696;2022-12-29T17:22:21;8.90;;;4.60;;
65691;SDS011;52411;52.716;6.696;2022-12-29T17:24:52;11.13;;;4.30;;
65691;SDS011;52411;52.716;6.696;2022-12-29T17:29:54;11.90;;;6.22;;
65691;SDS011;52411;52.716;6.696;2022-12-29T17:32:22;12.65;;;5.82;;
65691;SDS011;52411;52.716;6.696;2022-12-29T17:34:48;11.95;;;5.38;;
65691;SDS011;52411;52.716;6.696;2022-12-29T17:37:25;12.50;;;5.80;;
65691;SDS011;52411;52.716;6.696;2022-12-29T17:39:59;11.38;;;5.30;;
65691;SDS011;52411;52.716;6.696;2022-12-29T17:42:25;12.93;;;5.97;;
65691;SDS011;52411;52.716;6.696;2022-12-29T17:44:51;13.48;;;5.32;;
65691;SDS011;52411;52.716;6.696;2022-12-29T17:47:17;12.10;;;5.32;;
65691;SDS011;52411;52.716;6.696;2022-12-29T17:49:42;14.57;;;5.88;;
65691;SDS011;52411;52.716;6.696;2022-12-29T17:52:11;7.15;;;3.42;;
65691;SDS011;52411;52.716;6.696;2022-12-29T17:54:41;5.97;;;2.60;;
65691;SDS011;52411;52.716;6.696;2022-12-29T17:57:12;7.32;;;2.08;;
65691;SDS011;52411;52.716;6.696;2022-12-29T17:59:39;5.40;;;1.90;;
65691;SDS011;52411;52.716;6.696;2022-12-29T18:02:17;8.88;;;2.40;;